Time;durP1;ratioP1;P1;durP2;ratioP2;P2;SDS_P1;SDS_P2;PMS_P1;PMS_P2;Temp;Humidity;BMP_temperature;BMP_pressure;BME280_temperature;BME280_humidity;BME280_pressure;Samples;Min_cycle;Max_cycle;Signal;HPM_P1;HPM_P2
2021/05/04 00:00:43;;;;;;;33.75;17.45;;;23.20;29.40;;;;;;5072937;28;20220;-46
2021/05/04 00:03:09;;;;;;;37.30;17.67;;;23.20;29.40;;;;;;5072386;28;20235;-46
2021/05/04 00:05:35;;;;;;;36.67;17.80;;;23.20;30.00;;;;;;5067167;28;20205;-43
2021/05/04 00:08:01;;;;;;;41.40;19.35;;;23.20;29.50;;;;;;5072662;28;20518;-43
2021/05/04 00:10:27;;;;;;;38.97;19.17;;;23.20;29.50;;;;;;5073735;28;20198;-45
2021/05/04 00:12:53;;;;;;;39.75;20.00;;;23.20;29.50;;;;;;5073689;28;20221;-44
2021/05/04 00:15:19;;;;;;;44.03;21.25;;;23.20;29.50;;;;;;5070411;28;20555;-46
2021/05/04 00:17:45;;;;;;;42.42;20.02;;;23.20;29.60;;;;;;5061655;28;20229;-43
2021/05/04 00:20:11;;;;;;;40.15;19.13;;;23.20;29.50;;;;;;5072785;28;20209;-44
2021/05/04 00:22:37;;;;;;;42.17;20.40;;;23.20;29.60;;;;;;5054607;28;20232;-44
2021/05/04 00:25:03;;;;;;;43.88;22.33;;;23.20;29.60;;;;;;5064285;28;20212;-45
2021/05/04 00:27:29;;;;;;;46.43;22.57;;;23.20;29.60;;;;;;5072199;28;20264;-45
2021/05/04 00:29:55;;;;;;;43.97;21.35;;;23.20;29.60;;;;;;5072985;28;20193;-46
2021/05/04 00:32:21;;;;;;;47.20;22.23;;;23.20;29.60;;;;;;5071104;28;20584;-46
2021/05/04 00:34:47;;;;;;;45.47;22.10;;;23.20;29.60;;;;;;5071969;28;20212;-45
2021/05/04 00:37:13;;;;;;;54.50;23.58;;;23.20;29.60;;;;;;5072352;28;20224;-44
2021/05/04 00:39:39;;;;;;;49.13;23.43;;;23.20;29.60;;;;;;5072335;28;20216;-43
2021/05/04 00:42:05;;;;;;;50.80;23.33;;;23.20;29.70;;;;;;5071730;28;20209;-44
2021/05/04 00:44:31;;;;;;;50.13;23.27;;;23.20;29.60;;;;;;5070237;28;20258;-43
2021/05/04 00:46:57;;;;;;;49.67;23.38;;;23.20;29.70;;;;;;5072654;28;20583;-43
2021/05/04 00:49:23;;;;;;;59.17;25.93;;;23.20;29.70;;;;;;5071124;28;20255;-43
2021/05/04 00:51:50;;;;;;;53.90;24.77;;;23.20;29.70;;;;;;5072690;28;20353;-45
2021/05/04 00:54:16;;;;;;;59.00;25.25;;;23.20;29.70;;;;;;5071259;28;20617;-47
2021/05/04 00:56:42;;;;;;;54.92;25.17;;;23.20;29.70;;;;;;5071379;28;20205;-46
2021/05/04 00:59:08;;;;;;;51.60;24.40;;;23.20;29.70;;;;;;5071713;28;20204;-47
2021/05/04 01:01:34;;;;;;;59.50;25.77;;;23.20;29.80;;;;;;5072382;28;20566;-43
2021/05/04 01:04:00;;;;;;;47.63;24.23;;;23.20;29.80;;;;;;5066731;28;20232;-47
2021/05/04 01:06:26;;;;;;;63.88;26.67;;;23.20;29.80;;;;;;5070859;28;20204;-47
2021/05/04 01:08:52;;;;;;;58.60;25.30;;;23.20;29.80;;;;;;5071589;28;20585;-45
2021/05/04 01:11:18;;;;;;;58.85;25.55;;;23.10;29.70;;;;;;5072222;28;20676;-43
2021/05/04 01:13:44;;;;;;;60.08;26.38;;;23.20;29.80;;;;;;5070860;28;20221;-43
2021/05/04 01:16:10;;;;;;;55.97;26.60;;;23.20;29.80;;;;;;5070880;28;20843;-43
2021/05/04 01:18:36;;;;;;;64.32;28.83;;;23.20;30.20;;;;;;5071454;28;20225;-45
2021/05/04 01:21:02;;;;;;;57.90;26.73;;;23.20;29.80;;;;;;5071587;28;20220;-44
2021/05/04 01:23:28;;;;;;;63.50;28.23;;;23.20;29.80;;;;;;5071046;28;20586;-45
2021/05/04 01:25:54;;;;;;;50.50;25.23;;;23.20;29.80;;;;;;5071192;28;20209;-44
2021/05/04 01:28:20;;;;;;;53.42;23.33;;;23.20;29.80;;;;;;5071513;28;20211;-47
2021/05/04 01:30:46;;;;;;;50.07;23.30;;;23.10;29.70;;;;;;5071605;28;20232;-47
2021/05/04 01:33:12;;;;;;;52.70;24.10;;;23.10;29.70;;;;;;5070874;28;20568;-47
2021/05/04 01:35:38;;;;;;;57.85;26.30;;;23.10;29.70;;;;;;5070648;28;20197;-47
2021/05/04 01:38:04;;;;;;;62.33;26.73;;;23.10;29.70;;;;;;5070329;28;20556;-46
2021/05/04 01:40:30;;;;;;;58.63;26.48;;;23.10;29.80;;;;;;5072067;28;20669;-46
2021/05/04 01:42:56;;;;;;;54.45;24.83;;;23.20;29.80;;;;;;5069160;28;20224;-44
2021/05/04 01:45:22;;;;;;;55.35;25.23;;;23.10;29.80;;;;;;5064567;28;20208;-46
2021/05/04 01:47:48;;;;;;;64.40;28.05;;;23.10;29.80;;;;;;5069108;28;20197;-44
2021/05/04 01:50:14;;;;;;;56.38;25.95;;;23.10;29.80;;;;;;5070976;28;20204;-46
2021/05/04 01:52:40;;;;;;;58.17;26.58;;;23.10;29.80;;;;;;5070501;28;20230;-44
2021/05/04 01:55:06;;;;;;;58.67;26.90;;;23.10;30.30;;;;;;5070648;28;20674;-43
2021/05/04 01:57:32;;;;;;;64.00;27.40;;;23.10;29.80;;;;;;5070430;28;20354;-44
2021/05/04 01:59:58;;;;;;;55.93;26.47;;;23.10;29.90;;;;;;5069506;28;20201;-45
2021/05/04 02:02:24;;;;;;;54.33;26.52;;;23.10;29.80;;;;;;5069780;28;20229;-46
2021/05/04 02:04:50;;;;;;;61.92;27.27;;;23.10;29.80;;;;;;5068975;28;20208;-47
2021/05/04 02:07:16;;;;;;;61.70;26.58;;;23.10;29.90;;;;;;5068479;28;20241;-44
2021/05/04 02:09:42;;;;;;;59.27;25.87;;;23.10;29.90;;;;;;5070804;28;20205;-47
2021/05/04 02:12:08;;;;;;;56.70;26.23;;;23.10;29.90;;;;;;5071181;28;20213;-47
2021/05/04 02:14:34;;;;;;;58.70;26.42;;;23.10;29.90;;;;;;5068906;28;20592;-45
2021/05/04 02:17:00;;;;;;;54.28;24.63;;;23.10;30.00;;;;;;5069776;28;20615;-44
2021/05/04 02:19:26;;;;;;;62.28;28.00;;;23.10;29.90;;;;;;5071322;28;20208;-44
2021/05/04 02:21:52;;;;;;;58.08;26.98;;;23.10;29.90;;;;;;5070414;28;20247;-44
2021/05/04 02:24:18;;;;;;;65.53;28.60;;;23.10;29.90;;;;;;5069511;28;20708;-46
2021/05/04 02:26:44;;;;;;;61.30;26.20;;;23.10;29.90;;;;;;5070856;28;20259;-47
2021/05/04 02:29:10;;;;;;;64.37;28.00;;;23.10;29.90;;;;;;5070108;28;20201;-44
2021/05/04 02:31:36;;;;;;;60.50;25.75;;;23.10;29.90;;;;;;5069725;28;20975;-45
2021/05/04 02:34:02;;;;;;;62.58;26.85;;;23.10;29.90;;;;;;5069128;28;20205;-45
2021/05/04 02:36:28;;;;;;;61.47;26.95;;;23.10;29.90;;;;;;5070224;28;20205;-45
2021/05/04 02:38:54;;;;;;;60.72;26.50;;;23.10;29.90;;;;;;5070332;28;20704;-45
2021/05/04 02:41:20;;;;;;;62.90;27.35;;;23.10;29.90;;;;;;5069620;28;20238;-49
2021/05/04 02:43:46;;;;;;;63.40;28.98;;;23.10;29.90;;;;;;5069937;28;20217;-48
2021/05/04 02:46:12;;;;;;;66.17;27.73;;;23.10;29.90;;;;;;5070571;28;20583;-45
2021/05/04 02:48:39;;;;;;;65.25;28.88;;;23.10;29.90;;;;;;5069649;28;20200;-48
2021/05/04 02:51:05;;;;;;;64.82;27.52;;;23.10;29.90;;;;;;5068975;28;20249;-45
2021/05/04 02:53:31;;;;;;;78.03;32.17;;;23.10;29.90;;;;;;5069384;28;20228;-48
2021/05/04 02:55:57;;;;;;;55.00;25.85;;;23.10;29.90;;;;;;5068049;28;20258;-48
2021/05/04 02:58:23;;;;;;;67.18;27.67;;;23.10;29.90;;;;;;5068977;28;20224;-51
2021/05/04 03:00:49;;;;;;;70.55;29.55;;;23.10;29.90;;;;;;5073299;28;20196;-49
2021/05/04 03:03:15;;;;;;;61.42;27.35;;;23.10;29.90;;;;;;5073863;28;20252;-48
2021/05/04 03:05:41;;;;;;;75.05;30.13;;;23.10;29.90;;;;;;5071863;28;20258;-47
2021/05/04 03:08:07;;;;;;;69.03;28.47;;;23.10;29.90;;;;;;5074950;28;20635;-44
2021/05/04 03:10:33;;;;;;;62.22;28.40;;;23.10;29.90;;;;;;5073754;28;20198;-42
2021/05/04 03:12:59;;;;;;;58.53;27.23;;;23.10;29.90;;;;;;5073003;28;20302;-43
2021/05/04 03:15:25;;;;;;;65.05;28.85;;;23.10;29.90;;;;;;5072799;28;20200;-43
2021/05/04 03:17:51;;;;;;;64.43;27.70;;;23.10;29.90;;;;;;5073694;28;20236;-44
2021/05/04 03:20:17;;;;;;;62.92;27.50;;;23.10;29.90;;;;;;5073614;28;20197;-44
2021/05/04 03:22:43;;;;;;;67.80;29.80;;;23.10;30.00;;;;;;5063398;28;20228;-44
2021/05/04 03:25:09;;;;;;;59.67;27.77;;;23.10;30.00;;;;;;5071809;28;20224;-43
2021/05/04 03:27:35;;;;;;;61.88;26.23;;;23.10;30.00;;;;;;5073646;28;20212;-44
2021/05/04 03:30:02;;;;;;;65.33;29.40;;;23.10;29.90;;;;;;5073828;28;20197;-43
2021/05/04 03:32:28;;;;;;;69.50;29.55;;;23.10;29.90;;;;;;5069830;28;20676;-44
2021/05/04 03:34:54;;;;;;;71.22;29.42;;;23.10;29.90;;;;;;5072198;28;20350;-44
2021/05/04 03:37:20;;;;;;;69.63;29.27;;;23.10;29.90;;;;;;5073941;28;20209;-45
2021/05/04 03:39:46;;;;;;;69.22;28.85;;;23.10;30.00;;;;;;5073009;28;20283;-44
2021/05/04 03:42:12;;;;;;;62.10;28.43;;;23.10;30.00;;;;;;5073227;28;20258;-44
2021/05/04 03:44:38;;;;;;;69.90;29.38;;;23.10;30.00;;;;;;5072626;28;20204;-44
2021/05/04 03:47:04;;;;;;;71.43;30.00;;;23.10;30.00;;;;;;5074354;28;20197;-44
2021/05/04 03:49:30;;;;;;;72.77;30.63;;;23.10;29.90;;;;;;5069347;28;20722;-45
2021/05/04 03:51:56;;;;;;;66.23;28.63;;;23.10;29.90;;;;;;5072429;28;20220;-44
2021/05/04 03:54:22;;;;;;;62.22;26.25;;;23.10;30.00;;;;;;5073338;28;20207;-45
2021/05/04 03:56:48;;;;;;;71.53;28.80;;;23.10;30.00;;;;;;5072989;28;20679;-44
2021/05/04 03:59:14;;;;;;;64.55;26.20;;;23.10;30.00;;;;;;5072132;28;20225;-44
2021/05/04 04:01:40;;;;;;;65.15;27.85;;;23.10;30.00;;;;;;5072592;28;21831;-43
2021/05/04 04:04:06;;;;;;;60.10;26.75;;;23.10;30.00;;;;;;5072265;28;20246;-44
2021/05/04 04:06:32;;;;;;;69.90;30.63;;;23.10;30.00;;;;;;5071274;28;20212;-44
2021/05/04 04:08:58;;;;;;;70.43;27.42;;;23.10;30.00;;;;;;5071223;28;20209;-44
2021/05/04 04:11:24;;;;;;;64.03;26.17;;;23.10;30.00;;;;;;5071938;28;20205;-45
2021/05/04 04:13:50;;;;;;;66.80;27.52;;;23.10;29.90;;;;;;5071970;28;20201;-43
2021/05/04 04:16:16;;;;;;;58.83;26.67;;;23.10;30.00;;;;;;5073106;28;20610;-43
2021/05/04 04:18:42;;;;;;;64.65;27.63;;;23.10;30.00;;;;;;5072331;28;20889;-43
2021/05/04 04:21:08;;;;;;;66.93;28.55;;;23.10;30.00;;;;;;5071871;28;20209;-43
2021/05/04 04:23:34;;;;;;;61.92;26.00;;;23.10;30.00;;;;;;5072101;28;20221;-43
2021/05/04 04:26:00;;;;;;;66.53;28.00;;;23.10;30.00;;;;;;5071756;28;20201;-48
2021/05/04 04:28:26;;;;;;;54.88;24.70;;;23.10;29.90;;;;;;5072561;28;20204;-44
2021/05/04 04:30:52;;;;;;;57.00;24.30;;;23.10;30.00;;;;;;5072315;28;20712;-45
2021/05/04 04:33:18;;;;;;;57.43;27.70;;;23.10;30.00;;;;;;5072492;28;20712;-44
2021/05/04 04:35:44;;;;;;;60.77;26.50;;;23.10;30.00;;;;;;5071204;28;20583;-43
2021/05/04 04:38:10;;;;;;;60.70;26.33;;;23.10;30.00;;;;;;5072356;28;20228;-44
2021/05/04 04:40:36;;;;;;;58.30;25.57;;;23.10;30.00;;;;;;5071630;28;20270;-43
2021/05/04 04:43:02;;;;;;;59.80;26.10;;;23.10;30.00;;;;;;5072345;28;20229;-44
2021/05/04 04:45:28;;;;;;;57.97;25.52;;;23.10;30.00;;;;;;5072527;28;20276;-44
2021/05/04 04:47:54;;;;;;;57.13;24.73;;;23.10;30.00;;;;;;5071982;28;20572;-43
2021/05/04 04:50:20;;;;;;;53.13;24.08;;;23.10;30.00;;;;;;5070992;28;20216;-43
2021/05/04 04:52:46;;;;;;;60.97;24.90;;;23.10;30.00;;;;;;5070568;28;20597;-43
2021/05/04 04:55:12;;;;;;;53.93;22.87;;;23.10;30.00;;;;;;5062557;28;20194;-44
2021/05/04 04:57:38;;;;;;;58.97;24.23;;;23.10;30.00;;;;;;5071579;28;20318;-43
2021/05/04 05:00:04;;;;;;;53.57;24.40;;;23.10;30.00;;;;;;5070916;28;20251;-43
2021/05/04 05:02:30;;;;;;;54.67;22.88;;;23.10;30.00;;;;;;5070531;28;20220;-45
2021/05/04 05:04:56;;;;;;;57.10;24.23;;;23.10;30.00;;;;;;5071034;28;20208;-45
2021/05/04 05:07:22;;;;;;;51.93;23.77;;;23.10;30.00;;;;;;5071800;28;20208;-45
2021/05/04 05:09:48;;;;;;;54.40;24.40;;;23.10;30.00;;;;;;5071121;28;20212;-44
2021/05/04 05:12:14;;;;;;;63.50;25.02;;;23.10;30.00;;;;;;5072560;28;20627;-48
2021/05/04 05:17:24;;;;;;;54.63;22.70;;;23.10;30.00;;;;;;5070353;28;20223;-47
2021/05/04 05:19:50;;;;;;;56.60;23.50;;;23.10;29.90;;;;;;5071458;28;20197;-49
2021/05/04 05:22:16;;;;;;;57.03;24.27;;;23.20;30.00;;;;;;5071596;28;20220;-44
2021/05/04 05:24:42;;;;;;;58.60;22.98;;;23.10;30.00;;;;;;5070076;28;20208;-48
2021/05/04 05:27:08;;;;;;;59.17;24.63;;;23.20;30.00;;;;;;5071176;28;20208;-49
2021/05/04 05:29:34;;;;;;;56.72;24.98;;;23.10;30.00;;;;;;5072465;28;20201;-48
2021/05/04 05:32:00;;;;;;;52.78;22.92;;;23.10;30.00;;;;;;5070974;28;20588;-44
2021/05/04 05:34:26;;;;;;;54.07;22.63;;;23.20;30.00;;;;;;5070189;28;20672;-44
2021/05/04 05:36:52;;;;;;;51.72;22.88;;;23.20;30.00;;;;;;5071367;28;20201;-43
2021/05/04 05:39:19;;;;;;;51.05;22.17;;;23.20;30.00;;;;;;5071022;28;20254;-45
2021/05/04 05:41:45;;;;;;;52.85;23.33;;;23.20;30.60;;;;;;5071032;28;20230;-45
2021/05/04 05:44:13;;;;;;;52.63;23.83;;;23.20;30.00;;;;;;5068209;28;20197;-46
2021/05/04 05:46:39;;;;;;;50.88;22.10;;;23.20;30.00;;;;;;5068639;28;20223;-44
2021/05/04 05:49:05;;;;;;;49.15;21.75;;;23.20;30.00;;;;;;5069352;28;20208;-46
2021/05/04 05:51:31;;;;;;;50.83;22.25;;;23.20;30.20;;;;;;5069167;28;20688;-48
2021/05/04 05:53:57;;;;;;;54.15;22.75;;;23.20;30.20;;;;;;5071122;28;20209;-49
2021/05/04 05:56:24;;;;;;;55.65;24.30;;;23.10;30.10;;;;;;5069999;28;20205;-46
2021/05/04 05:58:50;;;;;;;46.70;22.33;;;23.10;30.10;;;;;;5069227;28;20229;-44
2021/05/04 06:01:16;;;;;;;50.42;22.60;;;23.20;30.20;;;;;;5068746;28;20228;-48
2021/05/04 06:03:42;;;;;;;41.23;18.80;;;23.20;30.50;;;;;;5069279;28;20193;-48
2021/05/04 06:06:08;;;;;;;38.55;17.25;;;23.20;31.00;;;;;;5069011;28;20248;-49
2021/05/04 06:08:34;;;;;;;39.67;16.42;;;23.10;31.30;;;;;;5066289;28;20606;-44
2021/05/04 06:11:00;;;;;;;37.60;15.73;;;23.10;31.20;;;;;;5069879;28;20274;-45
2021/05/04 06:13:26;;;;;;;40.13;17.33;;;23.10;31.00;;;;;;5067922;28;20205;-42
2021/05/04 06:15:52;;;;;;;36.33;16.70;;;23.10;31.20;;;;;;5068323;28;20243;-44
2021/05/04 06:18:18;;;;;;;38.28;16.85;;;23.10;31.10;;;;;;5067832;28;20791;-44
2021/05/04 06:20:44;;;;;;;42.83;18.83;;;23.10;31.10;;;;;;5070613;28;20197;-43
2021/05/04 06:23:10;;;;;;;38.85;17.55;;;23.20;30.90;;;;;;5064914;28;20727;-43
2021/05/04 06:25:36;;;;;;;40.38;17.83;;;23.20;30.90;;;;;;5058911;28;20204;-46
2021/05/04 06:28:05;;;;;;;34.00;16.15;;;23.20;31.10;;;;;;5070018;28;20217;-42
2021/05/04 06:30:34;;;;;;;40.00;17.10;;;23.20;31.20;;;;;;5071008;28;20247;-51
2021/05/04 06:33:00;;;;;;;39.20;16.02;;;23.20;31.40;;;;;;5076076;28;20716;-46
2021/05/04 06:35:26;;;;;;;36.80;16.38;;;23.20;31.50;;;;;;5069549;28;20217;-46
2021/05/04 06:37:52;;;;;;;39.25;17.33;;;23.20;31.80;;;;;;5080460;28;20228;-50
2021/05/04 06:40:18;;;;;;;41.00;17.80;;;23.20;31.80;;;;;;5072782;28;20197;-49
2021/05/04 06:42:44;;;;;;;41.83;17.92;;;23.20;32.00;;;;;;5070835;28;20301;-53
2021/05/04 06:45:10;;;;;;;50.75;22.52;;;23.20;31.90;;;;;;5072714;28;20287;-44
2021/05/04 06:47:36;;;;;;;49.40;20.70;;;23.20;31.80;;;;;;5069868;28;20193;-47
2021/05/04 06:50:02;;;;;;;55.22;22.83;;;23.20;31.90;;;;;;5070715;28;20243;-45
2021/05/04 06:52:28;;;;;;;51.42;22.63;;;23.20;32.50;;;;;;5068844;28;20232;-47
2021/05/04 06:54:54;;;;;;;56.67;24.02;;;23.20;32.50;;;;;;5063513;28;20205;-48
2021/05/04 06:57:21;;;;;;;50.22;21.33;;;23.20;32.50;;;;;;5069602;28;20205;-47
2021/05/04 06:59:47;;;;;;;56.80;24.90;;;23.20;32.50;;;;;;5070656;28;20203;-44
2021/05/04 07:02:13;;;;;;;47.92;20.15;;;23.20;32.50;;;;;;5069930;28;20220;-50
2021/05/04 07:04:39;;;;;;;28.42;11.38;;;23.10;30.00;;;;;;5062846;28;20683;-45
2021/05/04 07:07:05;;;;;;;20.40;8.87;;;22.20;27.50;;;;;;5069897;28;20193;-46
2021/05/04 07:09:31;;;;;;;20.43;9.13;;;21.90;27.10;;;;;;5069583;28;20346;-48
2021/05/04 07:11:57;;;;;;;20.43;8.97;;;22.10;27.50;;;;;;5068577;28;20255;-47
2021/05/04 07:14:23;;;;;;;18.40;8.17;;;22.40;27.30;;;;;;5068155;28;20584;-47
2021/05/04 07:16:49;;;;;;;14.10;7.93;;;22.60;27.30;;;;;;5064621;28;20271;-44
2021/05/04 07:19:16;;;;;;;16.73;7.80;;;22.70;27.50;;;;;;5069242;28;20235;-44
2021/05/04 07:21:42;;;;;;;15.67;6.83;;;22.80;27.90;;;;;;5068572;28;20236;-45
2021/05/04 07:24:08;;;;;;;14.70;7.67;;;22.90;28.00;;;;;;5069033;28;20208;-45
2021/05/04 07:26:35;;;;;;;13.10;6.30;;;22.90;28.00;;;;;;5067689;28;20209;-45
2021/05/04 07:29:01;;;;;;;12.10;6.57;;;22.90;28.00;;;;;;5065715;28;20201;-45
2021/05/04 07:31:30;;;;;;;13.33;6.10;;;23.00;28.20;;;;;;5066958;28;20736;-45
2021/05/04 07:33:56;;;;;;;10.90;5.83;;;23.00;28.00;;;;;;5068277;28;20211;-45
2021/05/04 07:36:22;;;;;;;12.40;6.93;;;23.10;28.10;;;;;;5068632;28;20625;-44
2021/05/04 07:38:48;;;;;;;11.60;6.40;;;23.10;28.50;;;;;;5069088;28;20729;-45
2021/05/04 07:41:14;;;;;;;12.20;6.13;;;23.20;28.70;;;;;;5070602;28;20224;-43
2021/05/04 07:43:40;;;;;;;11.85;5.50;;;23.20;28.20;;;;;;5067963;28;20263;-49
2021/05/04 07:46:06;;;;;;;10.23;5.50;;;23.20;28.20;;;;;;5068872;28;20248;-56
2021/05/04 07:48:32;;;;;;;9.27;5.37;;;23.20;28.40;;;;;;5074453;28;20202;-47
2021/05/04 07:50:58;;;;;;;12.02;6.40;;;23.20;28.20;;;;;;5083073;28;20224;-47
2021/05/04 07:53:24;;;;;;;10.63;5.15;;;23.20;29.00;;;;;;5071617;28;20208;-44
2021/05/04 07:55:50;;;;;;;9.73;5.65;;;23.20;28.50;;;;;;5071681;28;20653;-42
2021/05/04 07:58:16;;;;;;;9.25;5.53;;;23.20;28.20;;;;;;5072759;28;20220;-43
2021/05/04 08:00:42;;;;;;;9.20;5.47;;;23.20;28.20;;;;;;5072891;28;20221;-45
2021/05/04 08:03:08;;;;;;;10.40;6.32;;;23.20;28.20;;;;;;5073375;28;20197;-45
2021/05/04 08:05:34;;;;;;;10.63;5.97;;;23.20;28.40;;;;;;5073005;28;20262;-46
2021/05/04 08:08:00;;;;;;;8.30;5.53;;;23.20;28.20;;;;;;5072213;28;20209;-48
2021/05/04 08:10:26;;;;;;;9.23;5.00;;;23.20;28.20;;;;;;5073419;28;20254;-50
2021/05/04 08:12:52;;;;;;;8.23;5.10;;;23.20;28.20;;;;;;5073428;28;20205;-46
2021/05/04 08:15:19;;;;;;;9.25;4.95;;;23.20;28.20;;;;;;5070564;28;20270;-49
2021/05/04 08:17:51;;;;;;;8.65;4.82;;;23.20;28.20;;;;;;5075395;28;20224;-46
2021/05/04 08:20:17;;;;;;;7.25;4.63;;;23.20;28.20;;;;;;5071618;28;20209;-46
2021/05/04 08:22:43;;;;;;;10.85;6.03;;;23.20;28.20;;;;;;5071520;28;20201;-47
2021/05/04 08:25:09;;;;;;;8.82;5.15;;;23.20;28.20;;;;;;5070371;28;20284;-46
2021/05/04 08:27:35;;;;;;;8.38;4.80;;;23.30;28.20;;;;;;5073250;28;20212;-47
2021/05/04 08:30:01;;;;;;;6.13;3.90;;;23.20;28.20;;;;;;5073789;28;20201;-47
2021/05/04 08:32:27;;;;;;;7.47;4.40;;;23.20;27.90;;;;;;5072735;28;20224;-48
2021/05/04 08:34:53;;;;;;;6.18;4.95;;;23.20;27.90;;;;;;5072416;28;20235;-47
2021/05/04 08:37:19;;;;;;;8.20;5.00;;;23.10;27.70;;;;;;5073382;28;20281;-44
2021/05/04 08:39:45;;;;;;;7.90;4.30;;;23.20;27.70;;;;;;5073318;28;20201;-43
2021/05/04 08:42:11;;;;;;;7.10;4.22;;;23.20;27.70;;;;;;5073004;28;20218;-47
2021/05/04 08:44:37;;;;;;;7.50;4.22;;;23.20;27.60;;;;;;5072766;28;20201;-44
2021/05/04 08:47:03;;;;;;;6.53;3.78;;;23.20;27.70;;;;;;5073317;28;20219;-49
2021/05/04 08:49:29;;;;;;;6.97;3.92;;;23.20;27.50;;;;;;5072241;28;20212;-45
2021/05/04 08:51:56;;;;;;;7.95;3.72;;;23.20;27.40;;;;;;5066349;28;20225;-46
2021/05/04 08:54:22;;;;;;;5.57;3.67;;;23.10;27.30;;;;;;5072624;28;20205;-45
2021/05/04 08:56:48;;;;;;;6.70;3.85;;;23.10;27.40;;;;;;5072969;28;20208;-44
2021/05/04 08:59:14;;;;;;;5.88;3.88;;;23.20;27.50;;;;;;5073261;28;20286;-45
2021/05/04 09:01:40;;;;;;;6.50;3.30;;;23.20;27.30;;;;;;5072458;28;20225;-45
2021/05/04 09:04:08;;;;;;;4.82;3.33;;;23.10;27.10;;;;;;5072734;28;20251;-43
2021/05/04 09:06:36;;;;;;;4.93;3.03;;;23.10;27.00;;;;;;5072861;28;20258;-43
2021/05/04 09:09:04;;;;;;;4.72;3.25;;;23.20;27.10;;;;;;5072875;28;20207;-43
2021/05/04 09:11:46;;;;;;;6.97;3.42;;;23.10;26.90;;;;;;5072498;28;20224;-44
2021/05/04 09:14:16;;;;;;;5.90;3.45;;;23.20;27.20;;;;;;5070955;28;20254;-46
2021/05/04 09:16:46;;;;;;;4.63;3.20;;;23.20;27.60;;;;;;5072849;28;20556;-47
2021/05/04 09:19:32;;;;;;;6.35;2.67;;;23.10;26.90;;;;;;5072442;28;20282;-46
2021/05/04 09:21:58;;;;;;;4.20;3.30;;;23.20;26.90;;;;;;5072709;28;20294;-44
2021/05/04 09:24:24;;;;;;;5.28;2.90;;;23.10;26.70;;;;;;5063900;28;20657;-45
2021/05/04 09:26:50;;;;;;;5.60;3.00;;;23.10;26.80;;;;;;5066703;28;20274;-44
2021/05/04 09:29:16;;;;;;;4.57;2.70;;;23.20;27.00;;;;;;5067325;28;20686;-44
2021/05/04 09:31:42;;;;;;;4.25;3.00;;;23.20;26.80;;;;;;5068863;28;20495;-43
2021/05/04 09:34:08;;;;;;;4.35;2.47;;;23.20;26.90;;;;;;5070958;28;20212;-44
2021/05/04 09:36:34;;;;;;;3.15;2.53;;;23.20;27.00;;;;;;5074733;28;20283;-44
2021/05/04 09:39:00;;;;;;;3.30;2.70;;;23.20;27.50;;;;;;5069250;28;20244;-46
2021/05/04 09:41:26;;;;;;;4.30;2.95;;;23.30;28.20;;;;;;5069030;28;20227;-41
2021/05/04 09:43:52;;;;;;;4.47;2.88;;;23.30;28.20;;;;;;5068337;28;20790;-42
2021/05/04 09:46:18;;;;;;;4.28;2.70;;;23.30;28.20;;;;;;5068428;28;20212;-42
2021/05/04 09:48:44;;;;;;;3.42;2.20;;;23.30;28.90;;;;;;5069569;28;20216;-44
2021/05/04 09:51:14;;;;;;;4.70;2.85;;;23.40;28.30;;;;;;5067075;28;20251;-45
2021/05/04 09:53:46;;;;;;;3.42;2.53;;;23.40;28.40;;;;;;5066359;28;20202;-45
2021/05/04 09:56:12;;;;;;;2.72;2.35;;;23.40;28.30;;;;;;5071558;28;20196;-43
2021/05/04 09:58:38;;;;;;;4.07;2.38;;;23.40;28.30;;;;;;5071836;28;20228;-42
2021/05/04 10:01:04;;;;;;;4.65;3.13;;;23.40;27.90;;;;;;5068688;28;20276;-43
2021/05/04 10:03:30;;;;;;;3.67;2.67;;;23.40;28.00;;;;;;5067478;28;20205;-45
2021/05/04 10:05:56;;;;;;;3.53;2.60;;;23.40;28.30;;;;;;5067589;28;20205;-43
2021/05/04 10:08:22;;;;;;;2.53;2.13;;;23.40;28.10;;;;;;5068727;28;20216;-44
2021/05/04 10:10:48;;;;;;;3.17;2.53;;;23.40;28.00;;;;;;5071490;28;20584;-44
2021/05/04 10:13:14;;;;;;;3.83;2.00;;;23.30;27.30;;;;;;5067516;28;20197;-43
2021/05/04 10:15:40;;;;;;;3.00;1.80;;;23.30;27.30;;;;;;5075757;28;20216;-43
2021/05/04 10:20:44;;;;;;;4.10;2.53;;;23.30;27.10;;;;;;5056921;28;20230;-38
2021/05/04 10:23:10;;;;;;;3.35;2.03;;;23.30;26.80;;;;;;5049323;28;20201;-33
2021/05/04 10:25:36;;;;;;;3.45;1.95;;;23.10;23.90;;;;;;5044594;28;20217;-32
2021/05/04 10:28:02;;;;;;;2.92;2.10;;;23.00;23.50;;;;;;5049009;28;20232;-34
2021/05/04 10:30:30;;;;;;;2.78;1.90;;;23.10;23.30;;;;;;5046658;28;20237;-34
2021/05/04 10:32:58;;;;;;;2.10;1.90;;;23.10;23.80;;;;;;5051725;28;20200;-43
2021/05/04 10:35:24;;;;;;;4.28;1.98;;;23.20;24.10;;;;;;5053365;28;20568;-51
2021/05/04 10:37:50;;;;;;;1.77;1.63;;;23.20;24.30;;;;;;5049705;28;20272;-43
2021/05/04 10:40:16;;;;;;;2.85;1.83;;;23.20;24.60;;;;;;5049187;28;20217;-45
2021/05/04 10:42:44;;;;;;;2.80;1.90;;;23.30;24.70;;;;;;5049943;28;20205;-39
2021/05/04 10:45:10;;;;;;;2.10;1.70;;;23.30;24.90;;;;;;5049054;28;20206;-39
2021/05/04 10:47:36;;;;;;;2.67;1.90;;;23.30;25.20;;;;;;5049380;28;20213;-44
2021/05/04 10:50:02;;;;;;;2.95;2.05;;;23.30;25.50;;;;;;5050400;28;20605;-35
2021/05/04 10:52:27;;;;;;;2.45;2.03;;;23.30;25.50;;;;;;5053822;28;20220;-44
2021/05/04 10:54:54;;;;;;;2.22;2.03;;;23.30;25.50;;;;;;5048204;28;20198;-44
2021/05/04 10:57:19;;;;;;;2.03;1.80;;;23.30;25.80;;;;;;5050628;28;20254;-44
2021/05/04 10:59:46;;;;;;;2.60;1.90;;;23.30;25.40;;;;;;5046930;28;20862;-47
2021/05/04 11:02:12;;;;;;;2.53;2.05;;;23.30;25.40;;;;;;5043486;28;20206;-38
2021/05/04 11:04:38;;;;;;;2.65;2.00;;;23.30;25.40;;;;;;5047168;28;20270;-41
2021/05/04 11:07:04;;;;;;;3.50;2.33;;;23.30;25.50;;;;;;5048251;28;20224;-46
2021/05/04 11:09:30;;;;;;;1.88;1.75;;;23.30;25.60;;;;;;5049295;28;20201;-40
2021/05/04 11:11:57;;;;;;;5.25;2.10;;;23.30;25.70;;;;;;5050031;28;20208;-40
2021/05/04 11:14:23;;;;;;;2.40;2.20;;;23.30;25.60;;;;;;5045647;28;20292;-39
2021/05/04 11:16:48;;;;;;;2.80;1.90;;;23.30;26.20;;;;;;5047835;28;20411;-51
2021/05/04 11:19:16;;;;;;;2.00;1.80;;;23.30;25.80;;;;;;5043921;28;20233;-47
2021/05/04 11:21:42;;;;;;;4.32;2.60;;;23.30;25.90;;;;;;5049250;28;20585;-48
2021/05/04 11:24:08;;;;;;;3.00;2.15;;;23.30;26.20;;;;;;5053498;28;20209;-41
2021/05/04 11:26:34;;;;;;;5.03;2.00;;;23.30;26.50;;;;;;5048156;28;20293;-42
2021/05/04 11:29:00;;;;;;;2.63;1.90;;;23.30;26.40;;;;;;5057412;28;20669;-38
2021/05/04 11:31:26;;;;;;;2.92;2.28;;;23.40;26.50;;;;;;5058157;28;20221;-41
2021/05/04 11:33:52;;;;;;;2.55;2.10;;;23.40;26.60;;;;;;5056699;28;20194;-39
2021/05/04 11:36:18;;;;;;;2.25;2.05;;;23.40;26.70;;;;;;5057128;28;20444;-37
2021/05/04 11:38:44;;;;;;;5.25;3.97;;;23.40;26.70;;;;;;5053454;28;20229;-38
2021/05/04 11:41:10;;;;;;;10.02;7.55;;;23.30;26.60;;;;;;5057712;28;20243;-33
2021/05/04 11:43:36;;;;;;;16.15;11.30;;;23.40;26.80;;;;;;5064370;28;20198;-35
2021/05/04 11:46:02;;;;;;;17.95;12.13;;;23.40;26.80;;;;;;5052160;28;20202;-41
2021/05/04 11:48:31;;;;;;;24.25;13.75;;;23.30;26.90;;;;;;5053279;28;20205;-38
2021/05/04 11:50:57;;;;;;;19.95;12.52;;;23.40;27.00;;;;;;5047629;28;20312;-39
2021/05/04 11:53:23;;;;;;;17.92;12.45;;;23.30;27.10;;;;;;5052906;28;20251;-39
2021/05/04 11:55:50;;;;;;;19.42;12.63;;;23.40;27.20;;;;;;5051555;28;20201;-39
2021/05/04 11:58:16;;;;;;;18.50;12.10;;;23.40;27.20;;;;;;5055254;28;20217;-37
2021/05/04 12:00:42;;;;;;;19.63;11.70;;;23.40;27.20;;;;;;5055708;28;20371;-46
2021/05/04 12:03:08;;;;;;;18.02;11.25;;;23.40;27.20;;;;;;5067688;28;20669;-32
2021/05/04 12:05:34;;;;;;;18.30;11.23;;;23.30;27.10;;;;;;5052849;28;20384;-42
2021/05/04 12:08:00;;;;;;;16.70;10.65;;;23.40;27.20;;;;;;5052323;28;20619;-42
2021/05/04 12:10:26;;;;;;;13.10;9.43;;;23.30;27.10;;;;;;5052733;28;20249;-35
2021/05/04 12:12:52;;;;;;;15.75;9.57;;;23.30;27.10;;;;;;5066431;28;20249;-36
2021/05/04 12:15:18;;;;;;;12.77;9.15;;;23.30;27.00;;;;;;5056991;28;20209;-39
2021/05/04 12:17:44;;;;;;;11.77;8.95;;;23.30;27.00;;;;;;5052918;28;20202;-41
2021/05/04 12:20:10;;;;;;;11.23;8.20;;;23.30;26.90;;;;;;5052473;28;20326;-44
2021/05/04 12:22:36;;;;;;;11.23;8.55;;;23.30;26.90;;;;;;5053125;28;20197;-38
2021/05/04 12:25:02;;;;;;;12.20;8.15;;;23.30;27.00;;;;;;5051772;28;20684;-51
2021/05/04 12:27:28;;;;;;;14.93;8.30;;;23.30;26.90;;;;;;5046242;28;20202;-50
2021/05/04 12:29:54;;;;;;;8.65;6.90;;;23.30;27.00;;;;;;5052951;28;20225;-48
2021/05/04 12:32:20;;;;;;;11.35;6.90;;;23.30;26.90;;;;;;5045166;28;20255;-38